createdAt,value
2024-01-06T00:00:12.280Z,63.63
2024-01-06T00:02:40.445Z,60.10
2024-01-06T00:05:10.748Z,60.50
2024-01-06T00:07:38.913Z,64.40
2024-01-06T00:10:08.095Z,61.63
2024-01-06T00:12:36.253Z,66.07
2024-01-06T00:15:04.594Z,57.77
2024-01-06T00:17:32.947Z,59.50
2024-01-06T00:20:01.551Z,57.30
2024-01-06T00:22:31.259Z,59.87
2024-01-06T00:24:59.371Z,59.40
2024-01-06T00:27:27.533Z,64.40
2024-01-06T00:29:55.985Z,62.20
2024-01-06T00:32:24.191Z,62.10
2024-01-06T00:34:52.289Z,64.00
2024-01-06T00:37:20.377Z,61.97
2024-01-06T00:39:49.878Z,60.60
2024-01-06T00:42:18.123Z,62.10
2024-01-06T00:44:46.503Z,64.93
2024-01-06T00:47:14.602Z,61.50
2024-01-06T00:49:42.926Z,65.77
2024-01-06T00:52:11.128Z,59.30
2024-01-06T00:54:42.004Z,60.50
2024-01-06T00:57:11.548Z,60.67
2024-01-06T00:59:39.627Z,63.90
2024-01-06T01:02:08.312Z,59.70
2024-01-06T01:04:36.632Z,56.00
2024-01-06T01:07:04.804Z,61.80
2024-01-06T01:09:32.904Z,55.90
2024-01-06T01:12:01.347Z,55.33
2024-01-06T01:14:30.799Z,59.77
2024-01-06T01:16:58.838Z,57.57
2024-01-06T01:19:26.953Z,62.57
2024-01-06T01:21:56.679Z,57.43
2024-01-06T01:24:24.985Z,56.73
2024-01-06T01:26:53.146Z,59.53
2024-01-06T01:29:21.423Z,55.03
2024-01-06T01:31:51.062Z,52.90
2024-01-06T01:34:20.742Z,54.00
2024-01-06T01:36:48.924Z,56.27
2024-01-06T01:39:17.097Z,54.30
2024-01-06T01:41:45.344Z,54.80
2024-01-06T01:44:13.861Z,54.33
2024-01-06T01:46:42.488Z,59.47
2024-01-06T01:49:12.476Z,57.30
2024-01-06T01:51:41.280Z,56.83
2024-01-06T01:54:09.830Z,53.50
2024-01-06T01:56:42.049Z,52.20
2024-01-06T01:59:13.442Z,55.50
2024-01-06T02:01:42.197Z,55.33
2024-01-06T02:04:12.188Z,53.67
2024-01-06T02:06:40.421Z,56.07
2024-01-06T02:09:08.657Z,52.70
2024-01-06T02:11:36.829Z,55.80
2024-01-06T02:14:04.921Z,56.60
2024-01-06T02:16:32.984Z,55.20
2024-01-06T02:19:01.198Z,58.90
2024-01-06T02:21:33.080Z,58.57
2024-01-06T02:24:02.751Z,56.87
2024-01-06T02:26:30.865Z,54.70
2024-01-06T02:28:58.973Z,58.27
2024-01-06T02:31:27.448Z,55.60
2024-01-06T02:33:55.827Z,52.10
2024-01-06T02:36:24.223Z,56.00
2024-01-06T02:38:52.281Z,52.77
2024-01-06T02:41:21.760Z,54.13
2024-01-06T02:43:49.875Z,53.70
2024-01-06T02:46:17.937Z,51.13
2024-01-06T02:48:46.120Z,50.77
2024-01-06T02:51:14.952Z,51.23
2024-01-06T02:53:43.068Z,51.23
2024-01-06T02:56:12.557Z,50.67
2024-01-06T02:58:42.267Z,56.50
2024-01-06T03:01:10.502Z,53.13
2024-01-06T03:03:38.741Z,53.93
2024-01-06T03:06:07.334Z,54.87
2024-01-06T03:08:35.784Z,55.00
2024-01-06T03:11:05.032Z,52.20
2024-01-06T03:13:33.084Z,53.20
2024-01-06T03:16:06.868Z,55.03
2024-01-06T03:18:35.104Z,53.70
2024-01-06T03:21:03.282Z,56.40
2024-01-06T03:23:31.353Z,56.30
2024-01-06T03:25:59.439Z,53.00
2024-01-06T03:28:27.633Z,55.67
2024-01-06T03:30:55.841Z,56.23
2024-01-06T03:33:25.492Z,58.03
2024-01-06T03:35:53.664Z,56.90
2024-01-06T03:38:21.734Z,56.03
2024-01-06T03:40:49.839Z,55.10
2024-01-06T03:43:17.903Z,56.83
2024-01-06T03:45:46.416Z,57.20
2024-01-06T03:48:14.701Z,51.07
2024-01-06T03:50:44.321Z,56.67
2024-01-06T03:53:12.482Z,54.00
2024-01-06T03:55:40.764Z,51.17
2024-01-06T03:58:08.827Z,55.63
2024-01-06T04:00:36.978Z,52.30
2024-01-06T04:03:06.779Z,56.27
2024-01-06T04:05:34.879Z,53.00
2024-01-06T04:08:04.504Z,49.80
2024-01-06T04:10:32.573Z,51.43
2024-01-06T04:13:00.909Z,49.70
2024-01-06T04:15:29.012Z,52.23
2024-01-06T04:17:57.409Z,48.97
2024-01-06T04:20:25.563Z,43.73
2024-01-06T04:22:53.635Z,47.93
2024-01-06T04:25:23.274Z,47.30
2024-01-06T04:27:51.515Z,48.90
2024-01-06T04:30:21.674Z,48.30
2024-01-06T04:32:50.574Z,49.50
2024-01-06T04:35:19.260Z,48.13
2024-01-06T04:37:48.295Z,48.50
2024-01-06T04:40:16.595Z,50.37
2024-01-06T04:42:46.168Z,49.73
2024-01-06T04:45:14.355Z,47.40
2024-01-06T04:47:42.517Z,50.50
2024-01-06T04:50:11.329Z,48.30
2024-01-06T04:52:39.437Z,45.07
2024-01-06T04:55:07.890Z,45.70
2024-01-06T04:57:36.000Z,45.33
2024-01-06T05:00:06.574Z,44.17
2024-01-06T05:02:35.270Z,45.07
2024-01-06T05:05:03.416Z,43.73
2024-01-06T05:07:31.487Z,46.17
2024-01-06T05:09:59.591Z,45.30
2024-01-06T05:12:27.718Z,44.10
2024-01-06T05:14:55.788Z,41.83
2024-01-06T05:17:25.243Z,42.43
2024-01-06T05:19:53.377Z,41.40
2024-01-06T05:22:21.487Z,45.00
2024-01-06T05:24:49.613Z,45.73
2024-01-06T05:27:17.714Z,44.50
2024-01-06T05:29:45.774Z,44.37
2024-01-06T05:32:14.007Z,43.77
2024-01-06T05:34:43.613Z,44.67
2024-01-06T05:37:11.793Z,46.63
2024-01-06T05:39:40.661Z,46.07
2024-01-06T05:42:09.865Z,44.07
2024-01-06T05:44:39.009Z,47.83
2024-01-06T05:47:07.939Z,43.40
2024-01-06T05:49:36.318Z,45.83
2024-01-06T05:52:06.376Z,45.20
2024-01-06T05:54:34.479Z,45.30
2024-01-06T05:57:02.630Z,42.13
2024-01-06T05:59:30.997Z,42.03
2024-01-06T06:01:59.076Z,41.13
2024-01-06T06:04:27.252Z,40.30
2024-01-06T06:06:57.316Z,40.20
2024-01-06T06:09:29.590Z,40.87
2024-01-06T06:11:57.680Z,42.13
2024-01-06T06:14:29.117Z,45.33
2024-01-06T06:16:58.784Z,46.00
2024-01-06T06:19:26.994Z,50.13
2024-01-06T06:21:55.190Z,49.30
2024-01-06T06:24:23.441Z,47.53
2024-01-06T06:26:52.883Z,51.47
2024-01-06T06:29:21.965Z,47.07
2024-01-06T06:31:50.221Z,47.07
2024-01-06T06:34:18.805Z,43.73
2024-01-06T06:36:47.487Z,46.10
2024-01-06T06:39:15.816Z,44.73
2024-01-06T06:41:44.101Z,47.17
2024-01-06T06:44:13.639Z,46.40
2024-01-06T06:46:41.887Z,46.43
2024-01-06T06:49:10.108Z,41.87
2024-01-06T06:51:38.353Z,43.43
2024-01-06T06:54:07.941Z,44.07
2024-01-06T06:56:36.320Z,44.90
2024-01-06T06:59:04.379Z,44.13
2024-01-06T07:01:34.847Z,47.37
2024-01-06T07:04:03.484Z,46.00
2024-01-06T07:06:32.110Z,42.17
2024-01-06T07:09:01.028Z,42.90
2024-01-06T07:11:29.144Z,42.77
2024-01-06T07:13:57.206Z,38.70
2024-01-06T07:16:25.400Z,44.50
2024-01-06T07:18:55.133Z,43.77
2024-01-06T07:21:24.455Z,44.50
2024-01-06T07:23:52.687Z,39.87
2024-01-06T07:26:20.823Z,40.40
2024-01-06T07:28:49.419Z,44.83
2024-01-06T07:31:18.710Z,42.90
2024-01-06T07:33:46.972Z,42.63
2024-01-06T07:36:17.262Z,41.83
2024-01-06T07:38:47.036Z,41.70
2024-01-06T07:41:15.240Z,40.00
2024-01-06T07:43:43.365Z,44.27
2024-01-06T07:46:17.137Z,41.83
2024-01-06T07:48:48.181Z,42.87
2024-01-06T07:51:19.138Z,45.67
2024-01-06T07:53:47.982Z,42.70
2024-01-06T07:56:16.090Z,42.77
2024-01-06T07:58:44.197Z,44.27
2024-01-06T08:01:12.458Z,44.37
2024-01-06T08:03:40.600Z,42.77
2024-01-06T08:06:08.930Z,43.27
2024-01-06T08:08:38.466Z,42.53
2024-01-06T08:11:06.559Z,45.47
2024-01-06T08:13:35.682Z,45.83
2024-01-06T08:16:03.881Z,42.67
2024-01-06T08:18:32.195Z,46.23
2024-01-06T08:21:00.441Z,45.53
2024-01-06T08:23:28.535Z,43.93
2024-01-06T08:25:58.255Z,45.67
2024-01-06T08:28:26.318Z,43.03
2024-01-06T08:30:55.979Z,42.00
2024-01-06T08:33:24.159Z,44.10
2024-01-06T08:35:52.310Z,41.43
2024-01-06T08:38:20.424Z,40.60
2024-01-06T08:40:51.220Z,39.57
2024-01-06T08:43:21.169Z,41.67
2024-01-06T08:45:52.196Z,42.57
2024-01-06T08:48:20.693Z,43.57
2024-01-06T08:50:49.227Z,41.83
2024-01-06T08:53:17.548Z,40.17
2024-01-06T08:55:47.342Z,41.13
2024-01-06T08:58:15.847Z,42.07
2024-01-06T09:00:46.216Z,44.97
2024-01-06T09:03:15.032Z,43.60
2024-01-06T09:05:43.423Z,42.73
2024-01-06T09:08:11.516Z,42.87
2024-01-06T09:10:39.914Z,44.13
2024-01-06T09:13:07.957Z,44.70
2024-01-06T09:15:36.095Z,40.40
2024-01-06T09:18:06.197Z,44.80
2024-01-06T09:20:34.399Z,48.27
2024-01-06T09:23:02.829Z,45.27
2024-01-06T09:25:31.038Z,46.87
2024-01-06T09:27:59.866Z,47.37
2024-01-06T09:30:28.594Z,44.93
2024-01-06T09:32:56.789Z,43.90
2024-01-06T09:35:29.712Z,43.90
2024-01-06T09:38:00.307Z,49.10
2024-01-06T09:40:28.848Z,47.90
2024-01-06T09:43:00.140Z,48.07
2024-01-06T09:45:28.463Z,49.73
2024-01-06T09:48:12.461Z,45.63
2024-01-06T09:50:43.224Z,42.87
2024-01-06T09:53:20.308Z,43.57
2024-01-06T09:55:53.113Z,42.90
2024-01-06T09:58:21.388Z,45.47
2024-01-06T10:00:53.702Z,44.37
2024-01-06T10:03:21.909Z,44.50
2024-01-06T10:05:52.521Z,42.87
2024-01-06T10:08:23.206Z,45.87
2024-01-06T10:10:51.490Z,47.53
2024-01-06T10:13:19.962Z,46.47
2024-01-06T10:15:48.363Z,47.57
2024-01-06T10:18:18.064Z,48.70
2024-01-06T10:20:46.775Z,45.37
2024-01-06T10:23:16.336Z,48.50
2024-01-06T10:25:44.480Z,47.23
2024-01-06T10:28:14.942Z,48.37
2024-01-06T10:30:43.966Z,51.63
2024-01-06T10:33:12.518Z,50.20
2024-01-06T10:35:41.445Z,47.67
2024-01-06T10:38:09.952Z,49.30
2024-01-06T10:40:39.665Z,49.67
2024-01-06T10:43:09.555Z,48.00
2024-01-06T10:45:38.202Z,49.17
2024-01-06T10:48:08.381Z,45.53
2024-01-06T10:50:36.625Z,46.00
2024-01-06T10:53:05.827Z,48.43
2024-01-06T10:55:34.748Z,47.37
2024-01-06T10:58:06.014Z,48.07
2024-01-06T11:00:34.200Z,47.27
2024-01-06T11:03:03.486Z,46.17
2024-01-06T11:05:32.327Z,46.07
2024-01-06T11:08:02.170Z,49.10
2024-01-06T11:10:31.043Z,46.63
2024-01-06T11:13:14.190Z,47.20
2024-01-06T11:15:43.950Z,44.73
2024-01-06T11:18:32.153Z,47.10
2024-01-06T11:21:20.494Z,47.13
2024-01-06T11:23:49.280Z,44.00
2024-01-06T11:26:17.408Z,44.73
2024-01-06T11:28:47.904Z,44.23
2024-01-06T11:31:16.596Z,46.20
2024-01-06T11:33:50.173Z,45.07
2024-01-06T11:36:26.123Z,47.40
2024-01-06T11:38:57.610Z,41.60
2024-01-06T11:41:53.392Z,43.47
2024-01-06T11:44:24.624Z,39.33
2024-01-06T11:46:53.684Z,39.37
2024-01-06T11:49:23.362Z,39.70
2024-01-06T11:51:51.645Z,40.07
2024-01-06T11:54:21.952Z,34.67
2024-01-06T11:56:55.003Z,35.30
2024-01-06T11:59:24.475Z,34.23
2024-01-06T12:01:52.887Z,33.97
2024-01-06T12:04:23.393Z,35.77
2024-01-06T12:06:51.610Z,36.17
2024-01-06T12:09:21.369Z,32.23
2024-01-06T12:11:49.613Z,34.23
2024-01-06T12:14:17.879Z,29.33
2024-01-06T12:16:47.427Z,29.30
2024-01-06T12:19:15.603Z,28.60
2024-01-06T12:21:43.774Z,29.90
2024-01-06T12:24:21.472Z,30.10
2024-01-06T12:26:52.228Z,28.27
2024-01-06T12:29:22.019Z,29.40
2024-01-06T12:31:51.624Z,27.47
2024-01-06T12:34:19.949Z,27.23
2024-01-06T12:36:50.283Z,25.97
2024-01-06T12:39:19.230Z,27.37
2024-01-06T12:41:47.480Z,29.33
2024-01-06T12:44:15.545Z,26.93
2024-01-06T12:46:43.651Z,27.83
2024-01-06T12:49:13.365Z,26.47
2024-01-06T12:51:41.657Z,26.43
2024-01-06T12:54:10.003Z,25.43
2024-01-06T12:56:38.211Z,24.70
2024-01-06T12:59:07.190Z,24.70
2024-01-06T13:01:36.781Z,26.50
2024-01-06T13:04:05.380Z,23.50
2024-01-06T13:06:35.735Z,26.87
2024-01-06T13:09:07.277Z,24.43
2024-01-06T13:11:36.671Z,23.30
2024-01-06T13:14:04.818Z,25.80
2024-01-06T13:16:33.158Z,24.50
2024-01-06T13:19:03.436Z,22.60
2024-01-06T13:21:31.809Z,22.80
2024-01-06T13:24:03.649Z,22.40
2024-01-06T13:26:32.214Z,22.20
2024-01-06T13:29:00.337Z,23.53
2024-01-06T13:31:28.902Z,21.53
2024-01-06T13:33:57.256Z,22.50
2024-01-06T13:36:25.716Z,21.33
2024-01-06T13:38:53.859Z,20.23
2024-01-06T13:41:24.881Z,20.63
2024-01-06T13:43:53.005Z,21.33
2024-01-06T13:46:21.103Z,22.77
2024-01-06T13:48:49.330Z,22.33
2024-01-06T13:51:17.529Z,20.40
2024-01-06T13:53:45.763Z,21.50
2024-01-06T13:56:13.872Z,20.47
2024-01-06T13:58:43.326Z,20.20
2024-01-06T14:01:12.543Z,21.80
2024-01-06T14:03:42.217Z,21.53
2024-01-06T14:06:10.668Z,20.40
2024-01-06T14:08:38.745Z,19.37
2024-01-06T14:11:07.710Z,21.20
2024-01-06T14:13:35.745Z,21.17
2024-01-06T14:16:05.918Z,22.00
2024-01-06T14:18:35.220Z,21.67
2024-01-06T14:21:03.627Z,20.90
2024-01-06T14:23:34.210Z,20.77
2024-01-06T14:26:02.457Z,19.60
2024-01-06T14:28:31.091Z,19.20
2024-01-06T14:30:59.753Z,20.67
2024-01-06T14:33:29.405Z,23.07
2024-01-06T14:35:57.598Z,20.87
2024-01-06T14:38:25.976Z,20.40
2024-01-06T14:40:54.321Z,19.97
2024-01-06T14:43:23.213Z,22.60
2024-01-06T14:45:51.360Z,21.90
2024-01-06T14:48:19.653Z,21.93
2024-01-06T14:50:49.517Z,21.60
2024-01-06T14:53:17.625Z,21.87
2024-01-06T14:55:45.761Z,23.70
2024-01-06T14:58:14.297Z,25.20
2024-01-06T15:00:42.506Z,23.53
2024-01-06T15:03:10.720Z,22.83
2024-01-06T15:05:39.427Z,24.60
2024-01-06T15:08:09.216Z,24.50
2024-01-06T15:10:37.321Z,23.03
2024-01-06T15:13:05.768Z,23.83
2024-01-06T15:15:36.657Z,30.23
2024-01-06T15:18:05.108Z,28.90
2024-01-06T15:20:33.377Z,37.83
2024-01-06T15:23:01.455Z,39.13
2024-01-06T15:25:30.940Z,35.13
2024-01-06T15:27:59.187Z,42.93
2024-01-06T15:30:30.182Z,41.37
2024-01-06T15:32:58.392Z,34.50
2024-01-06T15:35:26.487Z,31.00
2024-01-06T15:37:54.616Z,31.40
2024-01-06T15:40:23.207Z,32.67
2024-01-06T15:42:52.772Z,30.37
2024-01-06T15:45:20.886Z,30.13
2024-01-06T15:47:48.999Z,27.90
2024-01-06T15:50:17.512Z,25.07
2024-01-06T15:52:47.829Z,25.47
2024-01-06T15:55:16.862Z,24.30
2024-01-06T15:57:45.000Z,22.03
2024-01-06T16:00:19.753Z,21.27
2024-01-06T16:02:47.877Z,21.43
2024-01-06T16:05:22.799Z,19.77
2024-01-06T16:07:51.244Z,18.63
2024-01-06T16:10:21.326Z,17.47
2024-01-06T16:12:49.745Z,21.07
2024-01-06T16:15:21.028Z,22.10
2024-01-06T16:17:49.651Z,19.37
2024-01-06T16:20:17.900Z,22.37
2024-01-06T16:22:47.326Z,21.40
2024-01-06T16:25:15.822Z,20.60
2024-01-06T16:27:44.168Z,19.13
2024-01-06T16:30:14.129Z,16.93
2024-01-06T16:32:43.687Z,18.83
2024-01-06T16:35:11.838Z,20.67
2024-01-06T16:37:39.912Z,23.63
2024-01-06T16:40:11.425Z,21.07
2024-01-06T16:42:40.128Z,19.90
2024-01-06T16:45:09.238Z,20.90
2024-01-06T16:47:37.495Z,17.27
2024-01-06T16:50:08.359Z,18.20
2024-01-06T16:52:37.353Z,18.30
2024-01-06T16:55:05.949Z,19.07
2024-01-06T16:57:34.061Z,16.27
2024-01-06T17:00:03.393Z,18.00
2024-01-06T17:02:31.487Z,15.30
2024-01-06T17:04:59.752Z,15.50
2024-01-06T17:07:29.299Z,13.00
2024-01-06T17:10:00.207Z,15.50
2024-01-06T17:12:28.551Z,13.57
2024-01-06T17:14:56.857Z,13.13
2024-01-06T17:17:24.948Z,14.30
2024-01-06T17:19:54.475Z,13.97
2024-01-06T17:22:22.789Z,13.37
2024-01-06T17:24:52.917Z,12.77
2024-01-06T17:27:21.033Z,12.83
2024-01-06T17:29:49.100Z,13.13
2024-01-06T17:32:17.165Z,12.60
2024-01-06T17:34:45.460Z,13.37
2024-01-06T17:37:14.211Z,15.00
2024-01-06T17:39:42.778Z,12.97
2024-01-06T17:42:12.234Z,13.50
2024-01-06T17:44:45.694Z,13.23
2024-01-06T17:47:14.966Z,14.47
2024-01-06T17:49:43.310Z,14.67
2024-01-06T17:52:17.019Z,14.60
2024-01-06T17:54:45.299Z,14.13
2024-01-06T17:57:19.378Z,14.07
2024-01-06T17:59:47.728Z,15.23
2024-01-06T18:02:16.185Z,14.20
2024-01-06T18:04:44.484Z,16.97
2024-01-06T18:07:12.750Z,14.00
2024-01-06T18:09:40.909Z,13.37
2024-01-06T18:12:09.582Z,13.30
2024-01-06T18:14:40.293Z,12.00
2024-01-06T18:17:09.319Z,11.80
2024-01-06T18:19:37.459Z,10.87
2024-01-06T18:22:06.238Z,10.43
2024-01-06T18:24:34.388Z,11.23
2024-01-06T18:27:02.450Z,12.77
2024-01-06T18:29:30.570Z,11.40
2024-01-06T18:32:00.017Z,10.90
2024-01-06T18:34:28.272Z,11.20
2024-01-06T18:36:56.436Z,11.60
2024-01-06T18:39:25.226Z,10.93
2024-01-06T18:41:53.990Z,14.27
2024-01-06T18:44:22.305Z,14.10
2024-01-06T18:46:50.358Z,16.33
2024-01-06T18:49:20.927Z,17.27
2024-01-06T18:51:49.089Z,16.00
2024-01-06T18:54:23.156Z,17.97
2024-01-06T18:56:59.207Z,15.60
2024-01-06T18:59:27.278Z,15.87
2024-01-06T19:01:55.481Z,13.40
2024-01-06T19:04:29.379Z,12.87
2024-01-06T19:06:57.619Z,11.23
2024-01-06T19:09:27.349Z,10.23
2024-01-06T19:12:00.415Z,11.43
2024-01-06T19:14:35.274Z,11.43
2024-01-06T19:17:03.435Z,12.83
2024-01-06T19:19:34.628Z,11.80
2024-01-06T19:22:03.004Z,9.23
2024-01-06T19:24:36.377Z,10.07
2024-01-06T19:27:11.013Z,9.47
2024-01-06T19:29:43.424Z,11.43
2024-01-06T19:32:12.010Z,9.67
2024-01-06T19:34:42.182Z,9.93
2024-01-06T19:37:11.163Z,8.80
2024-01-06T19:39:41.528Z,9.33
2024-01-06T19:42:09.829Z,11.07
2024-01-06T19:44:40.886Z,10.20
2024-01-06T19:47:11.139Z,10.27
2024-01-06T19:49:39.599Z,11.27
2024-01-06T19:52:09.291Z,9.33
2024-01-06T19:54:37.828Z,11.07
2024-01-06T19:57:06.822Z,9.63
2024-01-06T19:59:36.049Z,9.03
2024-01-06T20:02:04.203Z,10.70
2024-01-06T20:04:44.508Z,8.87
2024-01-06T20:07:18.530Z,11.23
2024-01-06T20:09:47.597Z,9.93
2024-01-06T20:12:15.788Z,9.67
2024-01-06T20:14:44.406Z,11.20
2024-01-06T20:17:12.670Z,11.57
2024-01-06T20:19:41.325Z,8.97
2024-01-06T20:22:10.200Z,9.50
2024-01-06T20:24:40.117Z,8.30
2024-01-06T20:27:08.572Z,8.87
2024-01-06T20:29:36.700Z,8.73
2024-01-06T20:32:06.386Z,10.40
2024-01-06T20:34:35.054Z,8.43
2024-01-06T20:37:03.977Z,8.17
2024-01-06T20:39:32.209Z,8.00
2024-01-06T20:42:01.771Z,8.03
2024-01-06T20:44:29.917Z,8.67
2024-01-06T20:47:07.678Z,9.40
2024-01-06T20:49:36.043Z,8.80
2024-01-06T20:52:06.055Z,8.17
2024-01-06T20:54:34.211Z,8.37
2024-01-06T20:57:06.389Z,8.30
2024-01-06T20:59:34.990Z,8.33
2024-01-06T21:02:04.027Z,9.20
2024-01-06T21:04:32.172Z,9.67
2024-01-06T21:07:04.325Z,8.87
2024-01-06T21:09:32.452Z,10.03
2024-01-06T21:12:00.543Z,9.90
2024-01-06T21:14:30.074Z,9.37
2024-01-06T21:16:58.150Z,9.73
2024-01-06T21:19:29.405Z,8.97
2024-01-06T21:21:57.989Z,9.00
2024-01-06T21:24:26.319Z,8.57
2024-01-06T21:26:55.044Z,10.17
2024-01-06T21:29:26.123Z,8.67
2024-01-06T21:31:55.635Z,10.20
2024-01-06T21:34:25.625Z,8.87
2024-01-06T21:36:54.073Z,9.20
2024-01-06T21:39:23.637Z,9.67
2024-01-06T21:41:54.431Z,9.27
2024-01-06T21:44:28.941Z,9.87
2024-01-06T21:47:31.564Z,10.47
2024-01-06T21:50:00.375Z,9.97
2024-01-06T21:52:28.593Z,11.73
2024-01-06T21:54:56.837Z,12.43
2024-01-06T21:57:25.007Z,10.13
2024-01-06T21:59:53.181Z,9.40
2024-01-06T22:02:22.803Z,11.37
2024-01-06T22:04:50.964Z,10.87
2024-01-06T22:07:19.372Z,10.77
2024-01-06T22:09:47.549Z,11.70
2024-01-06T22:12:15.772Z,9.63
2024-01-06T22:14:44.663Z,9.57
2024-01-06T22:17:12.885Z,11.47
2024-01-06T22:19:42.382Z,10.53
2024-01-06T22:22:10.534Z,11.57
2024-01-06T22:24:38.706Z,10.00
2024-01-06T22:27:16.502Z,10.07
2024-01-06T22:29:45.615Z,11.47
2024-01-06T22:32:13.701Z,13.77
2024-01-06T22:34:46.214Z,14.60
2024-01-06T22:37:14.366Z,12.03
2024-01-06T22:39:43.962Z,10.53
2024-01-06T22:42:12.207Z,11.50
2024-01-06T22:44:40.937Z,11.50
2024-01-06T22:47:09.211Z,10.13
2024-01-06T22:49:37.350Z,9.30
2024-01-06T22:52:07.243Z,9.80
2024-01-06T22:54:36.025Z,9.37
2024-01-06T22:57:04.312Z,9.73
2024-01-06T22:59:32.400Z,11.70
2024-01-06T23:02:00.658Z,11.87
2024-01-06T23:04:29.853Z,9.93
2024-01-06T23:06:58.129Z,10.20
2024-01-06T23:09:27.652Z,12.13
2024-01-06T23:11:55.762Z,10.40
2024-01-06T23:14:23.888Z,9.47
2024-01-06T23:16:52.342Z,10.80
2024-01-06T23:19:22.728Z,9.53
2024-01-06T23:22:00.356Z,9.00
2024-01-06T23:24:30.324Z,9.87
2024-01-06T23:29:29.635Z,8.90
2024-01-06T23:31:57.726Z,9.70
2024-01-06T23:34:38.052Z,10.63
2024-01-06T23:37:11.027Z,11.33
2024-01-06T23:39:46.104Z,9.57
2024-01-06T23:42:17.399Z,10.30
2024-01-06T23:44:45.674Z,11.67
2024-01-06T23:47:13.810Z,12.97
2024-01-06T23:49:42.642Z,15.20
2024-01-06T23:52:10.779Z,22.63
2024-01-06T23:54:41.666Z,25.73
2024-01-06T23:57:10.169Z,22.27
2024-01-06T23:59:44.123Z,18.67
